sensor_id;sensor_type;location;lat;lon;timestamp;pressure;altitude;pressure_sealevel;temperature;humidity
55550;BME280;41397;49.972;18.944;2023-03-18T00:00:44;102076.99;;;8.76;45.73
55550;BME280;41397;49.972;18.944;2023-03-18T00:03:50;102082.52;;;8.74;45.57
55550;BME280;41397;49.972;18.944;2023-03-18T00:06:52;102089.01;;;8.72;45.90
55550;BME280;41397;49.972;18.944;2023-03-18T00:09:54;102085.48;;;8.70;45.77
55550;BME280;41397;49.972;18.944;2023-03-18T00:12:56;102084.77;;;8.66;46.04
55550;BME280;41397;49.972;18.944;2023-03-18T00:16:00;102095.68;;;8.66;45.98
55550;BME280;41397;49.972;18.944;2023-03-18T00:19:02;102089.34;;;8.65;45.87
55550;BME280;41397;49.972;18.944;2023-03-18T00:22:04;102091.97;;;8.67;45.91
55550;BME280;41397;49.972;18.944;2023-03-18T00:25:07;102093.66;;;8.70;46.01
55550;BME280;41397;49.972;18.944;2023-03-18T00:28:09;102089.88;;;8.72;46.34
55550;BME280;41397;49.972;18.944;2023-03-18T00:31:11;102090.05;;;8.69;46.02
55550;BME280;41397;49.972;18.944;2023-03-18T00:34:14;102086.36;;;8.70;46.25
55550;BME280;41397;49.972;18.944;2023-03-18T00:37:16;102077.13;;;8.73;46.07
55550;BME280;41397;49.972;18.944;2023-03-18T00:40:27;102066.38;;;8.70;46.08
55550;BME280;41397;49.972;18.944;2023-03-18T00:43:46;102066.66;;;8.65;45.99
55550;BME280;41397;49.972;18.944;2023-03-18T00:46:54;102056.32;;;8.54;46.20
55550;BME280;41397;49.972;18.944;2023-03-18T00:49:56;102055.84;;;8.46;46.62
55550;BME280;41397;49.972;18.944;2023-03-18T00:52:58;102053.82;;;8.50;46.63
55550;BME280;41397;49.972;18.944;2023-03-18T00:56:00;102046.14;;;8.40;46.72
55550;BME280;41397;49.972;18.944;2023-03-18T00:59:04;102050.69;;;8.40;46.61
55550;BME280;41397;49.972;18.944;2023-03-18T01:02:06;102047.54;;;8.30;46.98
55550;BME280;41397;49.972;18.944;2023-03-18T01:05:10;102043.04;;;8.29;46.43
55550;BME280;41397;49.972;18.944;2023-03-18T01:08:11;102046.51;;;8.33;46.76
55550;BME280;41397;49.972;18.944;2023-03-18T01:11:13;102029.01;;;8.37;46.76
55550;BME280;41397;49.972;18.944;2023-03-18T01:14:15;102028.81;;;8.41;46.77
55550;BME280;41397;49.972;18.944;2023-03-18T01:17:16;102026.88;;;8.43;46.29
55550;BME280;41397;49.972;18.944;2023-03-18T01:20:19;102008.58;;;8.45;46.45
55550;BME280;41397;49.972;18.944;2023-03-18T01:23:20;102012.99;;;8.48;46.35
55550;BME280;41397;49.972;18.944;2023-03-18T01:26:22;102009.32;;;8.49;46.71
55550;BME280;41397;49.972;18.944;2023-03-18T01:29:26;102012.92;;;8.50;46.33
55550;BME280;41397;49.972;18.944;2023-03-18T01:32:28;102010.27;;;8.48;46.42
55550;BME280;41397;49.972;18.944;2023-03-18T01:35:30;102016.63;;;8.49;46.33
55550;BME280;41397;49.972;18.944;2023-03-18T01:38:32;102007.64;;;8.47;46.37
55550;BME280;41397;49.972;18.944;2023-03-18T01:41:35;101998.48;;;8.48;46.67
55550;BME280;41397;49.972;18.944;2023-03-18T01:44:36;102008.58;;;8.45;46.69
55550;BME280;41397;49.972;18.944;2023-03-18T01:47:38;102001.38;;;8.44;46.59
55550;BME280;41397;49.972;18.944;2023-03-18T01:50:40;101996.91;;;8.43;46.89
55550;BME280;41397;49.972;18.944;2023-03-18T01:53:46;102007.14;;;8.38;46.87
55550;BME280;41397;49.972;18.944;2023-03-18T01:56:49;101999.02;;;8.37;47.24
55550;BME280;41397;49.972;18.944;2023-03-18T01:59:55;101989.16;;;8.34;47.27
55550;BME280;41397;49.972;18.944;2023-03-18T02:02:58;101995.52;;;8.35;47.12
55550;BME280;41397;49.972;18.944;2023-03-18T02:06:00;101999.29;;;8.32;47.37
55550;BME280;41397;49.972;18.944;2023-03-18T02:09:03;101994.95;;;8.28;47.33
55550;BME280;41397;49.972;18.944;2023-03-18T02:12:05;102006.99;;;8.24;47.75
55550;BME280;41397;49.972;18.944;2023-03-18T02:15:12;101995.28;;;8.22;47.36
55550;BME280;41397;49.972;18.944;2023-03-18T02:18:19;101999.22;;;8.16;47.60
55550;BME280;41397;49.972;18.944;2023-03-18T02:27:50;101989.10;;;8.01;47.83
55550;BME280;41397;49.972;18.944;2023-03-18T02:30:59;101983.82;;;7.98;47.85
55550;BME280;41397;49.972;18.944;2023-03-18T02:34:08;101989.65;;;7.90;48.01
55550;BME280;41397;49.972;18.944;2023-03-18T02:37:11;101993.34;;;7.89;48.16
55550;BME280;41397;49.972;18.944;2023-03-18T02:40:19;101987.41;;;7.81;48.56
55550;BME280;41397;49.972;18.944;2023-03-18T02:43:29;101990.59;;;7.72;48.46
55550;BME280;41397;49.972;18.944;2023-03-18T02:46:45;101983.62;;;7.66;48.64
55550;BME280;41397;49.972;18.944;2023-03-18T02:49:46;101982.89;;;7.63;49.10
55550;BME280;41397;49.972;18.944;2023-03-18T02:52:52;101988.71;;;7.55;48.91
55550;BME280;41397;49.972;18.944;2023-03-18T02:55:53;101998.84;;;7.53;49.06
55550;BME280;41397;49.972;18.944;2023-03-18T02:58:55;101995.13;;;7.54;49.18
55550;BME280;41397;49.972;18.944;2023-03-18T03:01:58;101989.76;;;7.52;49.25
55550;BME280;41397;49.972;18.944;2023-03-18T03:05:01;101990.88;;;7.48;49.30
55550;BME280;41397;49.972;18.944;2023-03-18T03:08:03;101994.13;;;7.38;49.95
55550;BME280;41397;49.972;18.944;2023-03-18T03:11:05;101998.98;;;7.31;49.63
55550;BME280;41397;49.972;18.944;2023-03-18T03:14:09;102001.63;;;7.32;49.57
55550;BME280;41397;49.972;18.944;2023-03-18T03:17:11;102000.76;;;7.32;49.98
55550;BME280;41397;49.972;18.944;2023-03-18T03:20:13;102004.20;;;7.36;49.54
55550;BME280;41397;49.972;18.944;2023-03-18T03:23:16;102001.48;;;7.36;49.63
55550;BME280;41397;49.972;18.944;2023-03-18T03:26:17;102003.54;;;7.30;49.76
55550;BME280;41397;49.972;18.944;2023-03-18T03:29:20;102001.07;;;7.26;49.89
55550;BME280;41397;49.972;18.944;2023-03-18T03:32:22;102010.83;;;7.30;49.92
55550;BME280;41397;49.972;18.944;2023-03-18T03:35:23;102009.86;;;7.31;49.86
55550;BME280;41397;49.972;18.944;2023-03-18T03:38:25;102006.27;;;7.30;49.74
55550;BME280;41397;49.972;18.944;2023-03-18T03:41:27;102004.72;;;7.25;49.58
55550;BME280;41397;49.972;18.944;2023-03-18T03:44:28;102001.85;;;7.28;49.82
55550;BME280;41397;49.972;18.944;2023-03-18T03:47:31;102004.66;;;7.26;49.82
55550;BME280;41397;49.972;18.944;2023-03-18T03:50:33;101999.29;;;7.25;49.75
55550;BME280;41397;49.972;18.944;2023-03-18T03:53:35;101996.66;;;7.23;49.81
55550;BME280;41397;49.972;18.944;2023-03-18T03:56:36;102001.13;;;7.24;49.84
55550;BME280;41397;49.972;18.944;2023-03-18T03:59:38;101998.46;;;7.23;50.03
55550;BME280;41397;49.972;18.944;2023-03-18T04:02:41;101994.09;;;7.20;49.84
55550;BME280;41397;49.972;18.944;2023-03-18T04:05:45;102000.67;;;7.15;49.89
55550;BME280;41397;49.972;18.944;2023-03-18T04:08:47;102000.77;;;7.13;50.21
55550;BME280;41397;49.972;18.944;2023-03-18T04:11:49;102002.77;;;7.09;50.16
55550;BME280;41397;49.972;18.944;2023-03-18T04:14:50;101998.56;;;7.02;50.35
55550;BME280;41397;49.972;18.944;2023-03-18T04:17:51;102001.48;;;6.98;50.43
55550;BME280;41397;49.972;18.944;2023-03-18T04:20:53;101998.19;;;6.91;50.31
55550;BME280;41397;49.972;18.944;2023-03-18T04:23:55;101999.95;;;6.92;50.41
55550;BME280;41397;49.972;18.944;2023-03-18T04:26:57;102003.69;;;6.89;50.69
55550;BME280;41397;49.972;18.944;2023-03-18T04:29:59;102008.24;;;6.89;50.65
55550;BME280;41397;49.972;18.944;2023-03-18T04:33:00;102004.45;;;6.93;50.86
55550;BME280;41397;49.972;18.944;2023-03-18T04:36:03;102001.73;;;6.93;50.43
55550;BME280;41397;49.972;18.944;2023-03-18T04:39:05;102012.52;;;6.95;50.49
55550;BME280;41397;49.972;18.944;2023-03-18T04:42:06;102011.11;;;6.86;50.57
55550;BME280;41397;49.972;18.944;2023-03-18T04:45:08;102008.60;;;6.81;50.73
55550;BME280;41397;49.972;18.944;2023-03-18T04:48:10;102013.16;;;6.81;50.54
55550;BME280;41397;49.972;18.944;2023-03-18T04:51:11;102009.71;;;6.77;50.62
55550;BME280;41397;49.972;18.944;2023-03-18T04:54:14;102012.43;;;6.77;50.77
55550;BME280;41397;49.972;18.944;2023-03-18T04:57:15;102017.58;;;6.83;50.63
55550;BME280;41397;49.972;18.944;2023-03-18T05:00:19;102000.19;;;6.87;50.97
55550;BME280;41397;49.972;18.944;2023-03-18T05:03:23;102017.80;;;6.98;50.53
55550;BME280;41397;49.972;18.944;2023-03-18T05:06:27;102014.88;;;7.02;50.37
55550;BME280;41397;49.972;18.944;2023-03-18T05:09:29;102010.32;;;7.22;50.45
55550;BME280;41397;49.972;18.944;2023-03-18T05:12:32;102017.45;;;7.43;49.91
55550;BME280;41397;49.972;18.944;2023-03-18T05:15:33;102019.10;;;7.65;49.37
55550;BME280;41397;49.972;18.944;2023-03-18T05:18:35;102031.48;;;7.89;49.66
55550;BME280;41397;49.972;18.944;2023-03-18T05:21:37;102031.09;;;7.97;49.05
55550;BME280;41397;49.972;18.944;2023-03-18T05:24:39;102037.27;;;8.00;48.44
55550;BME280;41397;49.972;18.944;2023-03-18T05:27:43;102029.65;;;8.07;48.51
55550;BME280;41397;49.972;18.944;2023-03-18T05:30:44;102039.12;;;8.17;48.35
55550;BME280;41397;49.972;18.944;2023-03-18T05:33:47;102041.28;;;8.28;48.30
55550;BME280;41397;49.972;18.944;2023-03-18T05:36:48;102041.63;;;8.39;47.76
55550;BME280;41397;49.972;18.944;2023-03-18T05:39:52;102034.70;;;8.67;47.61
55550;BME280;41397;49.972;18.944;2023-03-18T05:42:54;102037.70;;;8.96;46.50
55550;BME280;41397;49.972;18.944;2023-03-18T05:45:56;102033.36;;;9.25;46.03
55550;BME280;41397;49.972;18.944;2023-03-18T05:48:58;102040.92;;;9.51;45.28
55550;BME280;41397;49.972;18.944;2023-03-18T05:51:59;102035.02;;;9.75;44.99
55550;BME280;41397;49.972;18.944;2023-03-18T05:55:04;102039.60;;;9.90;44.59
55550;BME280;41397;49.972;18.944;2023-03-18T05:58:06;102044.05;;;10.07;44.37
55550;BME280;41397;49.972;18.944;2023-03-18T06:01:08;102040.38;;;10.22;44.27
55550;BME280;41397;49.972;18.944;2023-03-18T06:04:11;102052.75;;;10.30;43.85
55550;BME280;41397;49.972;18.944;2023-03-18T06:07:12;102048.78;;;10.50;43.31
55550;BME280;41397;49.972;18.944;2023-03-18T06:10:15;102058.58;;;10.54;43.29
55550;BME280;41397;49.972;18.944;2023-03-18T06:13:17;102048.73;;;10.65;43.59
55550;BME280;41397;49.972;18.944;2023-03-18T06:16:19;102053.34;;;10.79;43.15
55550;BME280;41397;49.972;18.944;2023-03-18T06:19:21;102058.25;;;10.88;42.39
55550;BME280;41397;49.972;18.944;2023-03-18T06:22:25;102063.14;;;10.98;42.55
55550;BME280;41397;49.972;18.944;2023-03-18T06:25:31;102063.32;;;11.09;43.09
55550;BME280;41397;49.972;18.944;2023-03-18T06:28:38;102058.05;;;11.20;42.41
55550;BME280;41397;49.972;18.944;2023-03-18T06:31:40;102054.90;;;11.26;42.73
55550;BME280;41397;49.972;18.944;2023-03-18T06:34:42;102055.80;;;11.27;41.59
55550;BME280;41397;49.972;18.944;2023-03-18T06:37:46;102060.96;;;11.31;41.87
55550;BME280;41397;49.972;18.944;2023-03-18T06:40:48;102060.67;;;11.36;41.70
55550;BME280;41397;49.972;18.944;2023-03-18T06:43:50;102062.22;;;11.40;42.14
55550;BME280;41397;49.972;18.944;2023-03-18T06:46:53;102056.16;;;11.49;41.46
55550;BME280;41397;49.972;18.944;2023-03-18T06:49:55;102056.74;;;11.54;41.57
55550;BME280;41397;49.972;18.944;2023-03-18T06:52:57;102068.73;;;11.66;40.77
55550;BME280;41397;49.972;18.944;2023-03-18T06:55:59;102071.19;;;11.71;40.81
55550;BME280;41397;49.972;18.944;2023-03-18T06:59:01;102071.07;;;11.72;40.51
55550;BME280;41397;49.972;18.944;2023-03-18T07:02:02;102079.21;;;11.74;39.95
55550;BME280;41397;49.972;18.944;2023-03-18T07:05:09;102089.95;;;11.91;40.21
55550;BME280;41397;49.972;18.944;2023-03-18T07:08:12;102086.03;;;11.95;40.54
55550;BME280;41397;49.972;18.944;2023-03-18T07:11:16;102091.10;;;12.02;40.03
55550;BME280;41397;49.972;18.944;2023-03-18T07:14:24;102100.86;;;12.06;40.38
55550;BME280;41397;49.972;18.944;2023-03-18T07:17:26;102091.67;;;12.07;40.72
55550;BME280;41397;49.972;18.944;2023-03-18T07:20:27;102106.98;;;12.24;40.16
55550;BME280;41397;49.972;18.944;2023-03-18T07:23:29;102100.51;;;12.25;39.78
55550;BME280;41397;49.972;18.944;2023-03-18T07:29:43;102092.54;;;12.34;39.89
55550;BME280;41397;49.972;18.944;2023-03-18T07:32:44;102098.28;;;12.44;39.08
55550;BME280;41397;49.972;18.944;2023-03-18T07:35:46;102103.95;;;12.41;39.63
55550;BME280;41397;49.972;18.944;2023-03-18T07:38:48;102091.28;;;12.53;38.90
55550;BME280;41397;49.972;18.944;2023-03-18T07:41:49;102100.51;;;12.64;38.74
55550;BME280;41397;49.972;18.944;2023-03-18T07:44:51;102091.53;;;12.75;38.77
55550;BME280;41397;49.972;18.944;2023-03-18T07:47:54;102099.54;;;12.78;39.30
55550;BME280;41397;49.972;18.944;2023-03-18T07:50:56;102100.88;;;12.85;37.80
55550;BME280;41397;49.972;18.944;2023-03-18T07:54:00;102094.72;;;12.95;38.11
55550;BME280;41397;49.972;18.944;2023-03-18T07:57:01;102098.89;;;13.00;37.44
55550;BME280;41397;49.972;18.944;2023-03-18T08:00:06;102089.24;;;13.07;37.08
55550;BME280;41397;49.972;18.944;2023-03-18T08:03:11;102094.20;;;13.15;36.69
55550;BME280;41397;49.972;18.944;2023-03-18T08:06:15;102095.07;;;13.16;37.20
55550;BME280;41397;49.972;18.944;2023-03-18T08:09:17;102099.88;;;13.25;36.56
55550;BME280;41397;49.972;18.944;2023-03-18T08:12:18;102100.88;;;13.37;36.34
55550;BME280;41397;49.972;18.944;2023-03-18T08:15:21;102102.10;;;13.45;36.06
55550;BME280;41397;49.972;18.944;2023-03-18T08:18:23;102102.20;;;13.57;35.91
55550;BME280;41397;49.972;18.944;2023-03-18T08:21:25;102097.55;;;13.70;36.47
55550;BME280;41397;49.972;18.944;2023-03-18T08:24:27;102093.02;;;13.69;37.28
55550;BME280;41397;49.972;18.944;2023-03-18T08:27:29;102095.77;;;13.69;37.96
55550;BME280;41397;49.972;18.944;2023-03-18T08:30:33;102094.88;;;13.81;37.53
55550;BME280;41397;49.972;18.944;2023-03-18T08:33:34;102088.10;;;13.98;37.17
55550;BME280;41397;49.972;18.944;2023-03-18T08:36:40;102081.66;;;14.10;37.15
55550;BME280;41397;49.972;18.944;2023-03-18T08:39:42;102074.30;;;14.11;36.10
55550;BME280;41397;49.972;18.944;2023-03-18T08:42:44;102084.01;;;14.28;35.54
55550;BME280;41397;49.972;18.944;2023-03-18T08:45:51;102085.27;;;14.35;35.02
55550;BME280;41397;49.972;18.944;2023-03-18T08:48:53;102081.88;;;14.31;35.15
55550;BME280;41397;49.972;18.944;2023-03-18T08:51:55;102086.56;;;14.42;34.89
55550;BME280;41397;49.972;18.944;2023-03-18T08:54:57;102079.70;;;14.48;34.67
55550;BME280;41397;49.972;18.944;2023-03-18T08:58:00;102081.48;;;14.49;34.67
55550;BME280;41397;49.972;18.944;2023-03-18T09:01:02;102082.35;;;14.49;34.79
55550;BME280;41397;49.972;18.944;2023-03-18T09:04:05;102075.13;;;14.59;34.33
55550;BME280;41397;49.972;18.944;2023-03-18T09:07:07;102078.44;;;14.76;34.34
55550;BME280;41397;49.972;18.944;2023-03-18T09:10:10;102071.20;;;14.86;34.31
55550;BME280;41397;49.972;18.944;2023-03-18T09:13:14;102074.73;;;14.88;33.77
55550;BME280;41397;49.972;18.944;2023-03-18T09:16:15;102067.73;;;14.95;33.79
55550;BME280;41397;49.972;18.944;2023-03-18T09:19:18;102058.61;;;15.06;33.88
55550;BME280;41397;49.972;18.944;2023-03-18T09:22:20;102060.47;;;15.17;33.77
55550;BME280;41397;49.972;18.944;2023-03-18T09:25:24;102059.74;;;15.26;34.02
55550;BME280;41397;49.972;18.944;2023-03-18T09:28:25;102051.35;;;15.39;33.82
55550;BME280;41397;49.972;18.944;2023-03-18T09:31:30;102046.57;;;15.41;34.12
55550;BME280;41397;49.972;18.944;2023-03-18T09:34:49;102047.95;;;15.46;33.32
55550;BME280;41397;49.972;18.944;2023-03-18T09:38:01;102050.07;;;15.54;33.13
55550;BME280;41397;49.972;18.944;2023-03-18T09:54:12;102041.38;;;15.92;32.73
55550;BME280;41397;49.972;18.944;2023-03-18T09:57:24;102044.13;;;15.92;31.93
55550;BME280;41397;49.972;18.944;2023-03-18T10:00:34;102033.73;;;15.96;31.91
55550;BME280;41397;49.972;18.944;2023-03-18T10:03:42;102045.98;;;16.03;31.75
55550;BME280;41397;49.972;18.944;2023-03-18T10:06:50;102035.96;;;16.02;31.64
55550;BME280;41397;49.972;18.944;2023-03-18T10:10:05;102033.55;;;16.09;31.08
55550;BME280;41397;49.972;18.944;2023-03-18T10:16:27;102022.94;;;16.25;30.17
55550;BME280;41397;49.972;18.944;2023-03-18T10:19:34;102030.02;;;16.39;31.15
55550;BME280;41397;49.972;18.944;2023-03-18T10:22:49;102020.95;;;16.48;31.20
55550;BME280;41397;49.972;18.944;2023-03-18T10:39:03;101997.80;;;16.81;26.51
55550;BME280;41397;49.972;18.944;2023-03-18T10:42:20;102002.36;;;16.92;24.96
55550;BME280;41397;49.972;18.944;2023-03-18T10:45:29;101992.23;;;17.02;22.98
55550;BME280;41397;49.972;18.944;2023-03-18T10:52:00;101984.38;;;17.07;22.24
55550;BME280;41397;49.972;18.944;2023-03-18T10:55:16;101994.00;;;17.13;22.48
55550;BME280;41397;49.972;18.944;2023-03-18T10:58:20;101980.64;;;17.18;22.09
55550;BME280;41397;49.972;18.944;2023-03-18T11:01:27;101988.34;;;17.15;21.81
55550;BME280;41397;49.972;18.944;2023-03-18T11:04:37;101990.70;;;17.19;21.71
55550;BME280;41397;49.972;18.944;2023-03-18T11:14:22;101974.50;;;17.55;22.15
55550;BME280;41397;49.972;18.944;2023-03-18T11:17:33;101978.44;;;17.62;22.07
55550;BME280;41397;49.972;18.944;2023-03-18T11:20:42;101982.84;;;17.74;21.77
55550;BME280;41397;49.972;18.944;2023-03-18T11:30:29;101969.80;;;17.96;21.77
55550;BME280;41397;49.972;18.944;2023-03-18T11:33:32;101960.30;;;18.08;22.22
55550;BME280;41397;49.972;18.944;2023-03-18T11:36:37;101955.95;;;18.25;21.21
55550;BME280;41397;49.972;18.944;2023-03-18T11:39:39;101957.21;;;18.40;22.32
55550;BME280;41397;49.972;18.944;2023-03-18T11:42:41;101945.53;;;18.47;21.57
55550;BME280;41397;49.972;18.944;2023-03-18T11:45:50;101947.69;;;18.62;21.63
55550;BME280;41397;49.972;18.944;2023-03-18T11:48:53;101945.40;;;18.58;21.51
55550;BME280;41397;49.972;18.944;2023-03-18T12:05:08;101921.51;;;18.94;21.71
55550;BME280;41397;49.972;18.944;2023-03-18T12:08:21;101931.98;;;19.00;21.44
55550;BME280;41397;49.972;18.944;2023-03-18T12:27:43;101917.98;;;19.02;21.45
55550;BME280;41397;49.972;18.944;2023-03-18T12:30:55;101921.62;;;19.02;20.04
55550;BME280;41397;49.972;18.944;2023-03-18T12:37:36;101915.79;;;18.96;20.60
55550;BME280;41397;49.972;18.944;2023-03-18T12:51:29;101914.58;;;19.08;21.78
55550;BME280;41397;49.972;18.944;2023-03-18T12:54:44;101916.42;;;19.17;22.47
55550;BME280;41397;49.972;18.944;2023-03-18T12:57:49;101915.55;;;19.17;21.47
55550;BME280;41397;49.972;18.944;2023-03-18T13:01:05;101913.96;;;19.14;21.09
55550;BME280;41397;49.972;18.944;2023-03-18T13:04:18;101906.52;;;19.15;22.38
55550;BME280;41397;49.972;18.944;2023-03-18T13:10:48;101902.95;;;19.04;21.48
55550;BME280;41397;49.972;18.944;2023-03-18T13:13:59;101903.22;;;19.01;22.01
55550;BME280;41397;49.972;18.944;2023-03-18T13:17:07;101897.20;;;18.88;20.89
55550;BME280;41397;49.972;18.944;2023-03-18T13:24:00;101897.47;;;18.85;21.51
55550;BME280;41397;49.972;18.944;2023-03-18T13:43:24;101881.73;;;18.85;21.67
55550;BME280;41397;49.972;18.944;2023-03-18T13:46:31;101875.04;;;18.78;21.75
55550;BME280;41397;49.972;18.944;2023-03-18T13:49:36;101878.67;;;18.79;21.69
55550;BME280;41397;49.972;18.944;2023-03-18T13:52:40;101868.77;;;18.76;23.00
55550;BME280;41397;49.972;18.944;2023-03-18T13:59:03;101868.77;;;18.76;22.10
55550;BME280;41397;49.972;18.944;2023-03-18T14:06:37;101864.07;;;18.87;22.77
55550;BME280;41397;49.972;18.944;2023-03-18T14:12:59;101856.80;;;18.85;22.22
55550;BME280;41397;49.972;18.944;2023-03-18T14:16:26;101853.84;;;18.87;22.64
55550;BME280;41397;49.972;18.944;2023-03-18T14:19:38;101857.34;;;18.89;22.41
55550;BME280;41397;49.972;18.944;2023-03-18T14:29:28;101845.29;;;18.80;22.91
55550;BME280;41397;49.972;18.944;2023-03-18T14:32:37;101848.05;;;18.80;23.79
55550;BME280;41397;49.972;18.944;2023-03-18T14:35:46;101848.67;;;18.74;23.25
55550;BME280;41397;49.972;18.944;2023-03-18T14:38:59;101851.55;;;18.73;23.87
55550;BME280;41397;49.972;18.944;2023-03-18T14:45:27;101852.41;;;18.73;23.54
55550;BME280;41397;49.972;18.944;2023-03-18T14:48:32;101850.70;;;18.72;23.91
55550;BME280;41397;49.972;18.944;2023-03-18T14:51:35;101849.09;;;18.70;23.80
55550;BME280;41397;49.972;18.944;2023-03-18T14:54:40;101843.13;;;18.64;22.92
55550;BME280;41397;49.972;18.944;2023-03-18T14:57:45;101851.58;;;18.63;23.34
55550;BME280;41397;49.972;18.944;2023-03-18T15:00:52;101850.77;;;18.53;23.30
55550;BME280;41397;49.972;18.944;2023-03-18T15:03:55;101848.30;;;18.50;23.43
55550;BME280;41397;49.972;18.944;2023-03-18T15:07:00;101848.90;;;18.44;23.96
55550;BME280;41397;49.972;18.944;2023-03-18T15:10:11;101845.56;;;18.40;24.20
55550;BME280;41397;49.972;18.944;2023-03-18T15:13:16;101845.87;;;18.37;24.22
55550;BME280;41397;49.972;18.944;2023-03-18T15:16:22;101843.98;;;18.28;23.58
55550;BME280;41397;49.972;18.944;2023-03-18T15:19:27;101854.36;;;18.26;23.42
55550;BME280;41397;49.972;18.944;2023-03-18T15:22:30;101841.39;;;18.16;23.96
55550;BME280;41397;49.972;18.944;2023-03-18T15:25:35;101850.60;;;18.17;24.57
55550;BME280;41397;49.972;18.944;2023-03-18T15:28:39;101849.14;;;18.13;25.01
55550;BME280;41397;49.972;18.944;2023-03-18T15:31:43;101851.77;;;18.05;24.16
55550;BME280;41397;49.972;18.944;2023-03-18T15:34:51;101860.95;;;18.05;24.49
55550;BME280;41397;49.972;18.944;2023-03-18T15:38:09;101856.45;;;18.04;24.42
55550;BME280;41397;49.972;18.944;2023-03-18T15:41:10;101850.34;;;18.01;24.05
55550;BME280;41397;49.972;18.944;2023-03-18T15:44:17;101865.18;;;18.00;23.90
55550;BME280;41397;49.972;18.944;2023-03-18T15:47:28;101860.24;;;17.93;24.04
55550;BME280;41397;49.972;18.944;2023-03-18T15:50:50;101865.22;;;17.90;23.87
55550;BME280;41397;49.972;18.944;2023-03-18T15:57:29;101869.10;;;17.78;23.71
55550;BME280;41397;49.972;18.944;2023-03-18T16:00:39;101880.33;;;17.76;23.86
55550;BME280;41397;49.972;18.944;2023-03-18T16:03:44;101881.05;;;17.68;24.00
55550;BME280;41397;49.972;18.944;2023-03-18T16:06:50;101885.84;;;17.66;24.27
55550;BME280;41397;49.972;18.944;2023-03-18T16:09:56;101876.25;;;17.61;24.49
55550;BME280;41397;49.972;18.944;2023-03-18T16:13:00;101888.47;;;17.58;24.91
55550;BME280;41397;49.972;18.944;2023-03-18T16:16:05;101889.05;;;17.52;24.87
55550;BME280;41397;49.972;18.944;2023-03-18T16:19:22;101892.54;;;17.44;25.01
55550;BME280;41397;49.972;18.944;2023-03-18T16:22:28;101884.81;;;17.38;25.25
55550;BME280;41397;49.972;18.944;2023-03-18T16:25:30;101899.06;;;17.34;25.19
55550;BME280;41397;49.972;18.944;2023-03-18T16:28:31;101897.87;;;17.26;25.58
55550;BME280;41397;49.972;18.944;2023-03-18T16:31:33;101897.70;;;17.18;25.64
55550;BME280;41397;49.972;18.944;2023-03-18T16:34:35;101898.57;;;17.09;25.57
55550;BME280;41397;49.972;18.944;2023-03-18T16:37:36;101896.09;;;17.06;25.82
55550;BME280;41397;49.972;18.944;2023-03-18T16:42:23;101890.68;;;16.95;25.89
55550;BME280;41397;49.972;18.944;2023-03-18T16:45:31;101898.79;;;16.86;25.40
55550;BME280;41397;49.972;18.944;2023-03-18T16:48:33;101908.64;;;16.79;25.55
55550;BME280;41397;49.972;18.944;2023-03-18T16:51:36;101910.32;;;16.71;25.71
55550;BME280;41397;49.972;18.944;2023-03-18T16:54:41;101914.63;;;16.63;25.96
55550;BME280;41397;49.972;18.944;2023-03-18T16:57:51;101919.69;;;16.58;26.23
55550;BME280;41397;49.972;18.944;2023-03-18T17:00:53;101911.21;;;16.50;26.94
55550;BME280;41397;49.972;18.944;2023-03-18T17:03:55;101928.34;;;16.44;26.67
55550;BME280;41397;49.972;18.944;2023-03-18T17:06:59;101924.39;;;16.37;27.22
55550;BME280;41397;49.972;18.944;2023-03-18T17:10:02;101923.02;;;16.31;26.83
55550;BME280;41397;49.972;18.944;2023-03-18T17:13:08;101919.81;;;16.26;26.61
55550;BME280;41397;49.972;18.944;2023-03-18T17:16:16;101921.23;;;16.20;26.23
55550;BME280;41397;49.972;18.944;2023-03-18T17:19:20;101928.02;;;16.16;26.08
55550;BME280;41397;49.972;18.944;2023-03-18T17:22:30;101928.83;;;16.07;25.93
55550;BME280;41397;49.972;18.944;2023-03-18T17:25:32;101931.10;;;16.02;25.88
55550;BME280;41397;49.972;18.944;2023-03-18T17:28:39;101938.75;;;15.98;25.43
55550;BME280;41397;49.972;18.944;2023-03-18T17:31:43;101936.68;;;15.91;25.29
55550;BME280;41397;49.972;18.944;2023-03-18T17:34:45;101934.20;;;15.88;25.54
55550;BME280;41397;49.972;18.944;2023-03-18T17:37:50;101938.48;;;15.81;25.31
55550;BME280;41397;49.972;18.944;2023-03-18T17:40:54;101939.61;;;15.78;25.38
55550;BME280;41397;49.972;18.944;2023-03-18T17:43:56;101934.47;;;15.73;25.24
55550;BME280;41397;49.972;18.944;2023-03-18T17:46:58;101948.01;;;15.65;25.04
55550;BME280;41397;49.972;18.944;2023-03-18T17:49:59;101946.66;;;15.60;26.13
55550;BME280;41397;49.972;18.944;2023-03-18T17:53:01;101946.05;;;15.56;26.54
55550;BME280;41397;49.972;18.944;2023-03-18T17:56:05;101951.84;;;15.53;26.66
55550;BME280;41397;49.972;18.944;2023-03-18T17:59:13;101949.34;;;15.50;26.99
55550;BME280;41397;49.972;18.944;2023-03-18T18:02:19;101945.22;;;15.44;27.29
55550;BME280;41397;49.972;18.944;2023-03-18T18:05:25;101942.34;;;15.35;27.79
55550;BME280;41397;49.972;18.944;2023-03-18T18:08:28;101950.72;;;15.33;28.11
55550;BME280;41397;49.972;18.944;2023-03-18T18:11:35;101943.84;;;15.27;28.16
55550;BME280;41397;49.972;18.944;2023-03-18T18:14:45;101945.38;;;15.20;28.31
55550;BME280;41397;49.972;18.944;2023-03-18T18:17:47;101954.01;;;15.16;28.24
55550;BME280;41397;49.972;18.944;2023-03-18T18:21:01;101947.25;;;15.08;28.10
55550;BME280;41397;49.972;18.944;2023-03-18T18:27:29;101939.91;;;14.98;28.07